Terminal Aerodrome Forecast
Issued by NWS Omaha/Valley, NE

Home | Current Version | Previous Version | Text Only | Print | Product List | Glossary On
Versions: 1 2 3 4 5 6 7 8 9 10 11 12 13 14 15 16 17 18 19 20 21 22 23
000
FTUS43 KOAX 250520
TAFOMA
TAF
KOMA 250520Z 2506/2606 34010KT P6SM FEW090 SCT250
     FM251100 02008KT P6SM VCSH OVC100
     FM251300 01007KT P6SM VCSH OVC060
     FM252000 01008KT P6SM VCSH BKN015 OVC035
     FM252100 01008KT 5SM -SHRA BR BKN015 OVC035
     FM260000 33012KT 3SM BR BKN008 OVC015
     FM260200 33013KT P6SM BKN008 OVC010=

USA.gov is the U.S. government's official web portal to all federal, state and local government web resources and services.